createdAt,value
2023-01-04T00:13:33.729Z,0
2023-01-04T00:28:33.728Z,0
2023-01-04T00:43:33.676Z,0
2023-01-04T00:58:33.706Z,0
2023-01-04T01:13:33.666Z,0
2023-01-04T01:28:33.681Z,0
2023-01-04T01:43:33.630Z,0
2023-01-04T01:58:33.648Z,0
2023-01-04T02:13:33.608Z,0
2023-01-04T02:28:33.613Z,0
2023-01-04T02:43:33.565Z,0
2023-01-04T02:58:33.589Z,0
2023-01-04T03:13:33.522Z,0
2023-01-04T03:28:33.551Z,0
2023-01-04T03:43:33.489Z,0
2023-01-04T03:58:33.525Z,0
2023-01-04T04:13:33.465Z,0
2023-01-04T04:28:33.516Z,0
2023-01-04T04:43:33.435Z,0
2023-01-04T04:58:33.449Z,0
2023-01-04T05:13:33.408Z,0
2023-01-04T05:28:33.454Z,0
2023-01-04T05:43:33.378Z,0
2023-01-04T05:58:33.406Z,0
2023-01-04T06:13:33.347Z,0
2023-01-04T06:28:37.154Z,0
2023-01-04T06:43:33.328Z,0
2023-01-04T06:58:33.330Z,0
2023-01-04T07:13:33.297Z,0
2023-01-04T07:28:33.313Z,0
2023-01-04T07:43:33.267Z,0
2023-01-04T07:58:33.292Z,70
2023-01-04T08:21:39.245Z,169
2023-01-04T08:36:39.259Z,180
2023-01-04T08:51:39.229Z,0
2023-01-04T09:06:39.219Z,0
2023-01-04T09:21:39.299Z,2
2023-01-04T09:36:39.204Z,0
2023-01-04T09:51:39.149Z,0
2023-01-04T10:06:39.166Z,0
2023-01-04T10:21:39.127Z,0
2023-01-04T10:36:39.089Z,0
2023-01-04T10:51:39.102Z,0
2023-01-04T11:06:39.105Z,0
2023-01-04T11:21:39.072Z,0
2023-01-04T11:36:39.066Z,0
2023-01-04T11:51:38.998Z,0
2023-01-04T12:06:39.040Z,0
2023-01-04T12:21:38.986Z,0
2023-01-04T12:36:39.000Z,0
2023-01-04T12:51:46.922Z,0
2023-01-04T13:06:38.954Z,0
2023-01-04T13:21:38.899Z,0
2023-01-04T13:36:38.920Z,3
2023-01-04T13:51:38.881Z,0
2023-01-04T14:06:38.888Z,0
2023-01-04T14:21:38.828Z,0
2023-01-04T14:36:38.852Z,0
2023-01-04T14:51:38.841Z,0
2023-01-04T15:06:38.805Z,0
2023-01-04T15:21:41.318Z,0
2023-01-04T15:36:38.955Z,0
2023-01-04T15:51:38.719Z,0
2023-01-04T16:06:38.736Z,0
2023-01-04T16:21:38.699Z,0
2023-01-04T16:36:38.713Z,0
2023-01-04T16:51:38.676Z,0
2023-01-04T17:06:38.683Z,0
2023-01-04T17:21:38.622Z,0
2023-01-04T17:36:38.629Z,0
2023-01-04T17:51:38.592Z,0
2023-01-04T18:06:38.605Z,0
2023-01-04T18:21:38.583Z,1
2023-01-04T18:36:42.521Z,1
2023-01-04T18:51:38.525Z,5
2023-01-04T19:06:38.537Z,0
2023-01-04T19:21:38.494Z,0
2023-01-04T19:36:38.525Z,0
2023-01-04T19:51:38.494Z,0
2023-01-04T20:06:38.506Z,0
2023-01-04T20:21:38.440Z,0
2023-01-04T20:36:38.476Z,0
2023-01-04T20:51:38.411Z,0
2023-01-04T21:06:38.397Z,0
2023-01-04T21:21:38.398Z,0
2023-01-04T21:36:38.382Z,2
2023-01-04T21:51:38.382Z,0
2023-01-04T22:06:38.430Z,1
2023-01-04T22:21:38.358Z,0
2023-01-04T22:36:38.361Z,0
2023-01-04T22:51:38.324Z,1
2023-01-04T23:06:38.384Z,3
2023-01-04T23:21:38.298Z,0
2023-01-04T23:36:38.263Z,0
2023-01-04T23:51:38.276Z,0
